createdAt,value
2018-03-22T00:01:50.911Z,1012.30
2018-03-22T00:02:31.316Z,1012.22
2018-03-22T00:03:31.235Z,1012.21
2018-03-22T00:04:31.222Z,1012.22
2018-03-22T00:06:31.171Z,1012.18
2018-03-22T00:08:31.287Z,1012.16
2018-03-22T00:09:30.962Z,1012.12
2018-03-22T00:10:30.891Z,1012.09
2018-03-22T00:11:30.881Z,1012.04
2018-03-22T00:12:30.851Z,1012.02
2018-03-22T00:13:30.822Z,1011.97
2018-03-22T00:14:30.844Z,1011.92
2018-03-22T00:15:31.068Z,1011.93
2018-03-22T00:16:30.820Z,1011.98
2018-03-22T00:17:30.722Z,1012.01
2018-03-22T00:18:30.780Z,1011.98
2018-03-22T00:19:30.904Z,1011.96
2018-03-22T00:20:30.704Z,1011.88
2018-03-22T00:21:30.923Z,1011.92
2018-03-22T00:22:30.680Z,1011.84
2018-03-22T00:23:30.582Z,1011.93
2018-03-22T00:24:30.560Z,1011.90
2018-03-22T00:25:30.534Z,1011.90
2018-03-22T00:26:30.604Z,1011.84
2018-03-22T00:27:30.784Z,1011.86
2018-03-22T00:28:30.467Z,1011.80
2018-03-22T00:29:30.516Z,1011.79
2018-03-22T00:30:31.390Z,1011.72
2018-03-22T00:31:30.392Z,1011.78
2018-03-22T00:32:30.419Z,1011.67
2018-03-22T00:33:30.644Z,1011.78
2018-03-22T00:34:30.329Z,1011.67
2018-03-22T00:35:30.289Z,1011.62
2018-03-22T00:36:30.275Z,1011.53
2018-03-22T00:38:30.317Z,1011.61
2018-03-22T00:39:30.215Z,1011.54
2018-03-22T00:40:30.473Z,1011.58
2018-03-22T00:41:30.268Z,1011.51
2018-03-22T00:42:30.133Z,1011.55
2018-03-22T00:43:30.112Z,1011.52
2018-03-22T00:44:30.142Z,1011.52
2018-03-22T00:45:30.136Z,1011.54
2018-03-22T00:46:30.339Z,1011.50
2018-03-22T00:47:30.034Z,1011.54
2018-03-22T00:48:29.993Z,1011.55
2018-03-22T00:49:30.016Z,1011.52
2018-03-22T00:50:30.098Z,1011.52
2018-03-22T00:51:30.001Z,1011.52
2018-03-22T00:52:30.198Z,1011.41
2018-03-22T00:53:30.055Z,1011.47
2018-03-22T00:54:30.034Z,1011.44
2018-03-22T00:55:29.933Z,1011.39
2018-03-22T00:56:30.559Z,1011.36
2018-03-22T00:57:29.906Z,1011.40
2018-03-22T00:58:29.754Z,1011.37
2018-03-22T00:59:30.027Z,1011.28
2018-03-22T01:00:29.703Z,1011.34
2018-03-22T01:02:29.705Z,1011.28
2018-03-22T01:03:29.632Z,1011.23
2018-03-22T01:05:29.917Z,1011.20
2018-03-22T01:06:29.558Z,1011.26
2018-03-22T01:07:29.532Z,1011.09
2018-03-22T01:08:29.561Z,1011.08
2018-03-22T01:09:29.491Z,1011.09
2018-03-22T01:10:29.546Z,1011.04
2018-03-22T01:11:29.447Z,1011.06
2018-03-22T01:12:29.723Z,1010.98
2018-03-22T01:13:29.409Z,1010.97
2018-03-22T01:14:29.437Z,1010.91
2018-03-22T01:15:29.358Z,1010.79
2018-03-22T01:16:29.406Z,1010.87
2018-03-22T01:17:29.380Z,1010.71
2018-03-22T01:18:29.280Z,1010.62
2018-03-22T01:19:29.554Z,1010.81
2018-03-22T01:20:29.278Z,1010.66
2018-03-22T01:21:29.204Z,1010.64
2018-03-22T01:22:29.286Z,1010.62
2018-03-22T01:23:29.161Z,1010.58
2018-03-22T01:24:29.135Z,1010.59
2018-03-22T01:25:29.128Z,1010.63
2018-03-22T01:26:29.444Z,1010.46
2018-03-22T01:27:29.065Z,1010.50
2018-03-22T01:28:29.039Z,1010.49
2018-03-22T01:29:29.019Z,1010.44
2018-03-22T01:30:29.919Z,1010.45
2018-03-22T01:31:29.099Z,1010.43
2018-03-22T01:32:29.123Z,1010.40
2018-03-22T01:33:29.460Z,1010.35
2018-03-22T01:34:29.049Z,1010.24
2018-03-22T01:35:29.096Z,1010.25
2018-03-22T01:36:28.860Z,1010.25
2018-03-22T01:37:28.847Z,1010.31
2018-03-22T01:38:28.867Z,1010.20
2018-03-22T01:39:28.797Z,1010.18
2018-03-22T01:40:29.060Z,1010.10
2018-03-22T01:41:28.732Z,1010.10
2018-03-22T01:42:28.714Z,1010.01
2018-03-22T01:43:28.687Z,1010.04
2018-03-22T01:44:28.823Z,1010.06
2018-03-22T01:45:28.638Z,1010.00
2018-03-22T01:46:28.921Z,1010.06
2018-03-22T01:47:28.595Z,1009.98
2018-03-22T01:48:28.576Z,1010.01
2018-03-22T01:49:28.553Z,1010.01
2018-03-22T01:50:28.666Z,1009.95
2018-03-22T01:51:28.510Z,1009.98
2018-03-22T01:52:28.786Z,1009.91
2018-03-22T01:53:28.460Z,1010.04
2018-03-22T01:54:28.462Z,1009.90
2018-03-22T01:55:28.408Z,1009.91
2018-03-22T01:56:28.432Z,1009.87
2018-03-22T01:57:28.359Z,1009.93
2018-03-22T01:58:28.639Z,1009.81
2018-03-22T01:59:28.318Z,1009.76
2018-03-22T02:00:28.290Z,1009.89
2018-03-22T02:02:28.292Z,1009.70
2018-03-22T02:03:28.222Z,1009.63
2018-03-22T02:04:28.497Z,1009.55
2018-03-22T02:06:28.145Z,1009.51
2018-03-22T02:07:28.134Z,1009.45
2018-03-22T02:08:28.164Z,1009.41
2018-03-22T02:09:28.073Z,1009.51
2018-03-22T02:10:28.349Z,1009.40
2018-03-22T02:11:28.032Z,1009.33
2018-03-22T02:12:28.000Z,1009.31
2018-03-22T02:13:27.983Z,1009.30
2018-03-22T02:14:28.005Z,1009.25
2018-03-22T02:15:27.933Z,1009.25
2018-03-22T02:16:28.209Z,1009.22
2018-03-22T02:17:27.885Z,1009.28
2018-03-22T02:18:27.858Z,1009.26
2018-03-22T02:19:27.944Z,1009.24
2018-03-22T02:20:27.864Z,1009.32
2018-03-22T02:21:27.790Z,1009.28
2018-03-22T02:22:27.764Z,1009.25
2018-03-22T02:23:28.055Z,1009.20
2018-03-22T02:24:27.734Z,1009.32
2018-03-22T02:25:27.717Z,1009.15
2018-03-22T02:26:28.032Z,1009.21
2018-03-22T02:27:27.659Z,1009.06
2018-03-22T02:28:27.636Z,1009.12
2018-03-22T02:30:28.036Z,1009.08
2018-03-22T02:31:27.568Z,1008.98
2018-03-22T02:32:27.599Z,1009.02
2018-03-22T02:33:27.523Z,1009.00
2018-03-22T02:34:27.502Z,1009.00
2018-03-22T02:35:27.482Z,1008.97
2018-03-22T02:36:27.622Z,1008.91
2018-03-22T02:37:27.772Z,1008.98
2018-03-22T02:38:27.523Z,1008.95
2018-03-22T02:39:27.449Z,1008.96
2018-03-22T02:40:27.347Z,1008.97
2018-03-22T02:41:27.491Z,1008.85
2018-03-22T02:42:27.305Z,1008.80
2018-03-22T02:43:27.281Z,1008.85
2018-03-22T02:44:27.617Z,1008.78
2018-03-22T02:45:27.253Z,1008.78
2018-03-22T02:46:27.204Z,1008.84
2018-03-22T02:47:27.173Z,1008.78
2018-03-22T02:48:27.149Z,1008.87
2018-03-22T02:49:27.121Z,1008.78
2018-03-22T02:50:27.148Z,1008.65
2018-03-22T02:51:27.384Z,1008.67
2018-03-22T02:52:27.058Z,1008.65
2018-03-22T02:53:27.044Z,1008.64
2018-03-22T02:54:27.559Z,1008.66
2018-03-22T02:55:26.978Z,1008.59
2018-03-22T02:56:27.155Z,1008.51
2018-03-22T02:57:26.929Z,1008.50
2018-03-22T02:58:27.229Z,1008.48
2018-03-22T02:59:26.898Z,1008.45
2018-03-22T03:00:26.916Z,1008.43
2018-03-22T03:01:26.849Z,1008.45
2018-03-22T03:03:26.792Z,1008.41
2018-03-22T03:04:26.936Z,1008.34
2018-03-22T03:05:27.038Z,1008.34
2018-03-22T03:06:26.716Z,1008.24
2018-03-22T03:07:26.682Z,1008.29
2018-03-22T03:08:26.734Z,1008.21
2018-03-22T03:09:26.681Z,1008.18
2018-03-22T03:10:26.607Z,1008.22
2018-03-22T03:11:26.993Z,1008.21
2018-03-22T03:12:26.559Z,1008.11
2018-03-22T03:13:26.551Z,1008.14
2018-03-22T03:14:26.572Z,1008.16
2018-03-22T03:15:26.492Z,1008.12
2018-03-22T03:16:26.473Z,1008.12
2018-03-22T03:17:26.743Z,1008.07
2018-03-22T03:18:26.415Z,1008.08
2018-03-22T03:19:26.517Z,1008.05
2018-03-22T03:20:26.412Z,1008.04
2018-03-22T03:21:26.342Z,1008.03
2018-03-22T03:22:26.314Z,1007.94
2018-03-22T03:23:26.596Z,1007.93
2018-03-22T03:24:26.280Z,1008.00
2018-03-22T03:25:26.238Z,1007.91
2018-03-22T03:26:26.272Z,1007.76
2018-03-22T03:27:26.297Z,1007.84
2018-03-22T03:28:26.173Z,1007.77
2018-03-22T03:29:26.462Z,1007.68
2018-03-22T03:30:26.152Z,1007.73
2018-03-22T03:31:26.097Z,1007.67
2018-03-22T03:32:26.121Z,1007.67
2018-03-22T03:33:26.040Z,1007.63
2018-03-22T03:34:26.019Z,1007.58
2018-03-22T03:35:26.345Z,1007.56
2018-03-22T03:36:25.975Z,1007.54
2018-03-22T03:37:25.948Z,1007.54
2018-03-22T03:39:26.027Z,1007.49
2018-03-22T03:40:26.072Z,1007.45
2018-03-22T03:42:26.126Z,1007.50
2018-03-22T03:43:25.800Z,1007.37
2018-03-22T03:45:25.799Z,1007.42
2018-03-22T03:46:25.718Z,1007.38
2018-03-22T03:47:25.709Z,1007.28
2018-03-22T03:48:25.668Z,1007.30
2018-03-22T03:49:25.944Z,1007.26
2018-03-22T03:50:25.618Z,1007.32
2018-03-22T03:51:25.650Z,1007.20
2018-03-22T03:53:25.563Z,1007.15
2018-03-22T03:54:25.610Z,1007.11
2018-03-22T03:55:25.635Z,1007.14
2018-03-22T03:56:25.784Z,1007.13
2018-03-22T03:57:25.509Z,1007.12
2018-03-22T03:58:25.425Z,1007.00
2018-03-22T04:00:25.368Z,1007.02
2018-03-22T04:01:25.442Z,1007.00
2018-03-22T04:02:25.319Z,1006.98
2018-03-22T04:03:25.644Z,1007.01
2018-03-22T04:04:25.269Z,1006.90
2018-03-22T04:05:25.257Z,1006.89
2018-03-22T04:06:25.232Z,1006.79
2018-03-22T04:07:25.202Z,1006.84
2018-03-22T04:08:25.177Z,1006.84
2018-03-22T04:09:25.200Z,1006.82
2018-03-22T04:10:25.564Z,1006.76
2018-03-22T04:11:25.272Z,1006.73
2018-03-22T04:12:25.292Z,1006.69
2018-03-22T04:13:25.171Z,1006.66
2018-03-22T04:14:25.191Z,1006.61
2018-03-22T04:15:25.052Z,1006.70
2018-03-22T04:16:24.976Z,1006.74
2018-03-22T04:17:25.252Z,1006.61
2018-03-22T04:18:24.931Z,1006.64
2018-03-22T04:19:24.962Z,1006.56
2018-03-22T04:20:24.876Z,1006.58
2018-03-22T04:21:24.901Z,1006.57
2018-03-22T04:22:24.829Z,1006.54
2018-03-22T04:23:24.801Z,1006.45
2018-03-22T04:24:25.081Z,1006.40
2018-03-22T04:25:24.802Z,1006.38
2018-03-22T04:26:24.727Z,1006.34
2018-03-22T04:27:24.901Z,1006.27
2018-03-22T04:28:24.730Z,1006.37
2018-03-22T04:29:24.669Z,1006.37
2018-03-22T04:30:24.949Z,1006.31
2018-03-22T04:31:24.594Z,1006.25
2018-03-22T04:32:24.572Z,1006.21
2018-03-22T04:33:24.791Z,1006.25
2018-03-22T04:34:24.528Z,1006.23
2018-03-22T04:35:24.503Z,1006.17
2018-03-22T04:36:24.768Z,1006.24
2018-03-22T04:37:24.604Z,1006.14
2018-03-22T04:38:24.431Z,1006.18
2018-03-22T04:39:24.456Z,1006.10
2018-03-22T04:40:24.498Z,1006.04
2018-03-22T04:43:24.602Z,1005.99
2018-03-22T04:44:24.275Z,1006.06
2018-03-22T04:45:24.393Z,1005.85
2018-03-22T04:46:24.222Z,1005.86
2018-03-22T04:47:24.191Z,1005.82
2018-03-22T04:48:24.165Z,1005.82
2018-03-22T04:49:24.746Z,1005.73
2018-03-22T04:50:24.122Z,1005.75
2018-03-22T04:51:24.140Z,1005.70
2018-03-22T04:52:24.427Z,1005.70
2018-03-22T04:53:24.041Z,1005.72
2018-03-22T04:54:24.024Z,1005.65
2018-03-22T04:55:24.301Z,1005.69
2018-03-22T04:56:24.054Z,1005.56
2018-03-22T04:57:23.999Z,1005.66
2018-03-22T04:59:23.895Z,1005.57
2018-03-22T05:00:23.959Z,1005.44
2018-03-22T05:01:24.156Z,1005.64
2018-03-22T05:02:23.816Z,1005.50
2018-03-22T05:03:23.841Z,1005.51
2018-03-22T05:04:23.762Z,1005.53
2018-03-22T05:05:23.737Z,1005.42
2018-03-22T05:06:23.714Z,1005.43
2018-03-22T05:07:23.784Z,1005.33
2018-03-22T05:08:23.967Z,1005.32
2018-03-22T05:09:23.681Z,1005.31
2018-03-22T05:10:23.610Z,1005.28
2018-03-22T05:11:23.704Z,1005.19
2018-03-22T05:12:23.573Z,1005.21
2018-03-22T05:13:23.537Z,1005.16
2018-03-22T05:14:23.606Z,1005.20
2018-03-22T05:15:23.923Z,1005.09
2018-03-22T05:16:23.547Z,1005.20
2018-03-22T05:17:23.515Z,1005.04
2018-03-22T05:18:23.539Z,1005.07
2018-03-22T05:19:23.466Z,1005.14
2018-03-22T05:20:23.440Z,1005.21
2018-03-22T05:21:23.470Z,1005.09
2018-03-22T05:22:23.690Z,1005.07
2018-03-22T05:23:23.380Z,1005.07
2018-03-22T05:24:23.340Z,1005.07
2018-03-22T05:25:23.234Z,1005.01
2018-03-22T05:26:23.205Z,1004.96
2018-03-22T05:27:23.313Z,1004.95
2018-03-22T05:28:23.157Z,1005.05
2018-03-22T05:29:23.434Z,1004.94
2018-03-22T05:30:23.185Z,1004.90
2018-03-22T05:31:23.160Z,1004.92
2018-03-22T05:32:23.064Z,1004.93
2018-03-22T05:35:23.358Z,1005.08
2018-03-22T05:36:22.961Z,1005.01
2018-03-22T05:37:23.011Z,1005.07
2018-03-22T05:38:22.983Z,1005.09
2018-03-22T05:39:22.931Z,1004.98
2018-03-22T05:40:22.858Z,1005.22
2018-03-22T05:42:23.106Z,1004.99
2018-03-22T05:43:22.777Z,1004.89
2018-03-22T05:44:22.777Z,1004.86
2018-03-22T05:45:22.789Z,1005.02
2018-03-22T05:46:22.806Z,1005.00
2018-03-22T05:47:22.777Z,1004.98
2018-03-22T05:48:22.647Z,1005.01
2018-03-22T05:49:22.923Z,1004.97
2018-03-22T05:50:22.603Z,1004.92
2018-03-22T05:51:22.634Z,1004.88
2018-03-22T05:52:22.850Z,1005.01
2018-03-22T05:53:22.623Z,1005.05
2018-03-22T05:54:22.502Z,1004.82
2018-03-22T05:55:22.794Z,1005.02
2018-03-22T05:56:22.440Z,1005.01
2018-03-22T05:57:22.467Z,1004.93
2018-03-22T05:58:22.410Z,1004.90
2018-03-22T05:59:22.371Z,1004.92
2018-03-22T06:00:22.426Z,1004.94
2018-03-22T06:01:22.698Z,1004.94
2018-03-22T06:02:22.385Z,1004.93
2018-03-22T06:03:22.332Z,1004.83
2018-03-22T06:04:22.326Z,1004.77
2018-03-22T06:05:22.223Z,1004.78
2018-03-22T06:06:22.210Z,1004.81
2018-03-22T06:07:22.549Z,1004.60
2018-03-22T06:08:22.146Z,1004.79
2018-03-22T06:09:22.170Z,1004.78
2018-03-22T06:10:22.180Z,1004.77
2018-03-22T06:11:22.072Z,1004.81
2018-03-22T06:12:22.124Z,1004.67
2018-03-22T06:13:22.404Z,1004.68
2018-03-22T06:14:22.079Z,1004.67
2018-03-22T06:15:22.103Z,1004.63
2018-03-22T06:16:22.029Z,1004.56
2018-03-22T06:17:21.998Z,1004.56
2018-03-22T06:18:21.975Z,1004.83
2018-03-22T06:19:22.258Z,1004.61
2018-03-22T06:20:21.843Z,1004.58
2018-03-22T06:21:21.865Z,1004.61
2018-03-22T06:22:21.791Z,1004.56
2018-03-22T06:23:21.770Z,1004.45
2018-03-22T06:24:21.740Z,1004.47
2018-03-22T06:25:22.026Z,1004.53
2018-03-22T06:27:21.711Z,1004.33
2018-03-22T06:28:21.639Z,1004.32
2018-03-22T06:29:21.615Z,1004.37
2018-03-22T06:30:21.589Z,1004.37
2018-03-22T06:31:21.659Z,1004.30
2018-03-22T06:32:21.872Z,1004.19
2018-03-22T06:33:21.649Z,1004.27
2018-03-22T06:34:21.576Z,1004.19
2018-03-22T06:35:21.656Z,1004.29
2018-03-22T06:36:21.532Z,1004.35
2018-03-22T06:37:21.425Z,1004.30
2018-03-22T06:38:21.449Z,1004.48
2018-03-22T06:39:21.774Z,1004.18
2018-03-22T06:40:21.341Z,1004.25
2018-03-22T06:41:21.313Z,1004.25
2018-03-22T06:42:21.640Z,1004.17
2018-03-22T06:43:21.277Z,1004.24
2018-03-22T06:44:21.246Z,1004.16
2018-03-22T06:45:21.273Z,1004.22
2018-03-22T06:46:21.555Z,1004.24
2018-03-22T06:47:21.168Z,1004.13
2018-03-22T06:48:21.142Z,1004.20
2018-03-22T06:49:21.132Z,1004.35
2018-03-22T06:50:21.146Z,1004.24
2018-03-22T06:51:21.117Z,1004.29
2018-03-22T06:53:21.335Z,1004.17
2018-03-22T06:54:21.006Z,1004.11
2018-03-22T06:55:20.980Z,1004.08
2018-03-22T06:56:20.968Z,1004.09
2018-03-22T06:57:20.978Z,1004.05
2018-03-22T06:59:20.884Z,1004.06
2018-03-22T07:00:21.152Z,1004.00
2018-03-22T07:01:20.933Z,1004.08
2018-03-22T07:02:20.814Z,1004.11
2018-03-22T07:03:20.847Z,1004.19
2018-03-22T07:04:20.758Z,1004.10
2018-03-22T07:05:20.736Z,1004.22
2018-03-22T07:07:21.714Z,1004.21
2018-03-22T07:08:20.652Z,1004.05
2018-03-22T07:09:20.684Z,1004.01
2018-03-22T07:10:20.803Z,1004.20
2018-03-22T07:11:20.586Z,1004.16
2018-03-22T07:12:20.578Z,1004.04
2018-03-22T07:13:20.848Z,1004.04
2018-03-22T07:14:20.525Z,1004.06
2018-03-22T07:15:20.595Z,1003.97
2018-03-22T07:17:20.493Z,1004.07
2018-03-22T07:18:20.425Z,1004.00
2018-03-22T07:19:20.689Z,1004.11
2018-03-22T07:20:20.477Z,1004.04
2018-03-22T07:21:20.381Z,1004.07
2018-03-22T07:22:20.314Z,1003.95
2018-03-22T07:23:20.285Z,1003.93
2018-03-22T07:24:20.257Z,1003.94
2018-03-22T07:25:20.534Z,1003.85
2018-03-22T07:26:20.282Z,1003.99
2018-03-22T07:27:20.251Z,1003.91
2018-03-22T07:28:20.163Z,1003.88
2018-03-22T07:29:20.247Z,1003.87
2018-03-22T07:30:20.130Z,1004.04
2018-03-22T07:31:20.507Z,1004.00
2018-03-22T07:32:20.076Z,1003.95
2018-03-22T07:33:20.393Z,1003.85
2018-03-22T07:34:20.018Z,1003.87
2018-03-22T07:35:19.988Z,1003.71
2018-03-22T07:36:20.010Z,1003.79
2018-03-22T07:37:20.007Z,1003.72
2018-03-22T07:39:20.391Z,1003.79
2018-03-22T07:40:19.866Z,1003.80
2018-03-22T07:41:19.845Z,1003.72
2018-03-22T07:42:19.825Z,1003.90
2018-03-22T07:43:19.846Z,1003.78
2018-03-22T07:44:19.828Z,1003.68
2018-03-22T07:45:20.108Z,1003.82
2018-03-22T07:46:19.728Z,1003.72
2018-03-22T07:48:20.192Z,1003.71
2018-03-22T07:49:19.759Z,1003.75
2018-03-22T07:50:20.264Z,1003.74
2018-03-22T07:51:19.758Z,1003.80
2018-03-22T07:52:19.885Z,1003.68
2018-03-22T07:53:19.659Z,1003.71
2018-03-22T07:54:19.540Z,1003.76
2018-03-22T07:55:19.519Z,1003.57
2018-03-22T07:56:19.510Z,1003.57
2018-03-22T07:57:19.533Z,1003.52
2018-03-22T07:58:19.451Z,1003.49
2018-03-22T07:59:19.725Z,1003.52
2018-03-22T08:00:19.407Z,1003.47
2018-03-22T08:01:19.444Z,1003.47
2018-03-22T08:02:19.402Z,1003.48
2018-03-22T08:03:25.648Z,1003.46
2018-03-22T08:04:19.304Z,1003.44
2018-03-22T08:05:20.666Z,1003.41
2018-03-22T08:06:19.281Z,1003.54
2018-03-22T08:08:19.210Z,1003.49
2018-03-22T08:09:19.236Z,1003.44
2018-03-22T08:10:19.258Z,1003.43
2018-03-22T08:11:19.190Z,1003.44
2018-03-22T08:13:19.411Z,1003.52
2018-03-22T08:14:19.117Z,1003.51
2018-03-22T08:15:19.102Z,1003.52
2018-03-22T08:16:19.368Z,1003.48
2018-03-22T08:17:19.082Z,1003.41
2018-03-22T08:18:18.979Z,1003.47
2018-03-22T08:19:18.953Z,1003.37
2018-03-22T08:21:19.408Z,1003.32
2018-03-22T08:22:19.269Z,1003.39
2018-03-22T08:23:18.924Z,1003.44
2018-03-22T08:24:19.148Z,1003.23
2018-03-22T08:25:18.831Z,1003.27
2018-03-22T08:26:18.817Z,1003.24
2018-03-22T08:27:19.122Z,1003.24
2018-03-22T08:28:18.884Z,1003.20
2018-03-22T08:29:18.731Z,1003.24
2018-03-22T08:30:19.407Z,1003.11
2018-03-22T08:31:18.688Z,1003.06
2018-03-22T08:32:18.714Z,1003.03
2018-03-22T08:33:19.281Z,1003.06
2018-03-22T08:34:18.603Z,1003.17
2018-03-22T08:35:18.590Z,1003.12
2018-03-22T08:36:18.562Z,1003.12
2018-03-22T08:37:18.545Z,1003.03
2018-03-22T08:38:18.518Z,1003.04
2018-03-22T08:39:18.857Z,1003.08
2018-03-22T08:40:18.474Z,1003.19
2018-03-22T08:41:18.467Z,1003.06
2018-03-22T08:42:18.496Z,1003.06
2018-03-22T08:44:18.380Z,1003.02
2018-03-22T08:45:18.708Z,1003.13
2018-03-22T08:46:18.343Z,1003.12
2018-03-22T08:47:18.318Z,1003.12
2018-03-22T08:48:18.308Z,1003.09
2018-03-22T08:49:18.264Z,1003.05
2018-03-22T08:50:18.242Z,1003.19
2018-03-22T08:51:18.713Z,1003.16
2018-03-22T08:52:18.193Z,1003.25
2018-03-22T08:53:18.171Z,1003.19
2018-03-22T08:54:18.163Z,1003.20
2018-03-22T08:55:18.123Z,1003.14
2018-03-22T08:56:18.111Z,1003.13
2018-03-22T08:57:18.137Z,1003.02
2018-03-22T08:58:18.063Z,1003.08
2018-03-22T08:59:18.034Z,1002.92
2018-03-22T09:01:17.997Z,1002.98
2018-03-22T09:03:18.292Z,1003.13
2018-03-22T09:04:17.923Z,1002.98
2018-03-22T09:05:17.898Z,1003.02
2018-03-22T09:06:17.921Z,1002.91
2018-03-22T09:07:17.853Z,1003.00
2018-03-22T09:08:17.825Z,1002.95
2018-03-22T09:09:18.162Z,1002.92
2018-03-22T09:10:17.783Z,1003.10
2018-03-22T09:11:17.762Z,1003.24
2018-03-22T09:12:17.724Z,1002.98
2018-03-22T09:13:17.703Z,1003.10
2018-03-22T09:15:18.123Z,1003.02
2018-03-22T09:16:17.646Z,1002.99
2018-03-22T09:17:17.622Z,1002.85
2018-03-22T09:18:17.601Z,1002.94
2018-03-22T09:19:17.576Z,1002.94
2018-03-22T09:20:17.554Z,1002.94
2018-03-22T09:21:17.854Z,1002.96
2018-03-22T09:22:17.744Z,1002.97
2018-03-22T09:23:17.477Z,1002.98
2018-03-22T09:24:17.465Z,1002.97
2018-03-22T09:25:17.608Z,1002.93
2018-03-22T09:27:17.941Z,1003.08
2018-03-22T09:28:17.371Z,1002.98
2018-03-22T09:29:18.006Z,1002.91
2018-03-22T09:30:17.338Z,1002.98
2018-03-22T09:31:17.378Z,1002.97
2018-03-22T09:32:17.363Z,1002.93
2018-03-22T09:33:17.704Z,1003.04
2018-03-22T09:35:17.290Z,1002.96
2018-03-22T09:36:17.301Z,1003.19
2018-03-22T09:37:17.241Z,1002.86
2018-03-22T09:38:17.228Z,1002.87
2018-03-22T09:39:17.497Z,1002.85
2018-03-22T09:40:17.099Z,1002.80
2018-03-22T09:41:17.156Z,1002.84
2018-03-22T09:42:17.124Z,1002.80
2018-03-22T09:43:17.035Z,1002.82
2018-03-22T09:44:17.021Z,1002.74
2018-03-22T09:45:17.342Z,1002.87
2018-03-22T09:46:16.972Z,1002.79
2018-03-22T09:48:16.923Z,1002.95
2018-03-22T09:49:16.894Z,1002.82
2018-03-22T09:50:16.888Z,1002.79
2018-03-22T09:51:17.951Z,1002.81
2018-03-22T09:52:16.877Z,1002.81
2018-03-22T09:53:16.798Z,1002.86
2018-03-22T09:54:16.779Z,1002.65
2018-03-22T09:55:16.759Z,1002.77
2018-03-22T09:56:16.833Z,1002.75
2018-03-22T09:57:16.911Z,1002.81
2018-03-22T09:58:16.698Z,1002.85
2018-03-22T09:59:16.676Z,1002.72
2018-03-22T10:01:16.635Z,1002.78
2018-03-22T10:02:16.598Z,1002.85
2018-03-22T10:03:16.624Z,1002.88
2018-03-22T10:04:16.561Z,1002.89
2018-03-22T10:06:16.506Z,1002.84
2018-03-22T10:07:16.486Z,1002.85
2018-03-22T10:08:16.462Z,1002.91
2018-03-22T10:09:16.787Z,1002.93
2018-03-22T10:10:16.438Z,1002.95
2018-03-22T10:11:16.447Z,1002.80
2018-03-22T10:12:16.392Z,1002.82
2018-03-22T10:13:16.350Z,1002.90
2018-03-22T10:14:16.342Z,1002.95
2018-03-22T10:15:16.347Z,1002.82
2018-03-22T10:16:16.420Z,1002.87
2018-03-22T10:17:16.264Z,1002.82
2018-03-22T10:18:16.234Z,1002.80
2018-03-22T10:19:16.271Z,1002.79
2018-03-22T10:20:16.199Z,1002.90
2018-03-22T10:21:16.615Z,1002.83
2018-03-22T10:22:16.152Z,1002.80
2018-03-22T10:23:16.117Z,1002.83
2018-03-22T10:24:16.102Z,1002.87
2018-03-22T10:25:16.294Z,1002.83
2018-03-22T10:26:16.052Z,1002.85
2018-03-22T10:27:16.070Z,1002.81
2018-03-22T10:28:16.010Z,1002.80
2018-03-22T10:29:16.018Z,1002.76
2018-03-22T10:31:15.943Z,1002.76
2018-03-22T10:32:16.231Z,1002.77
2018-03-22T10:33:16.296Z,1002.78
2018-03-22T10:34:15.878Z,1002.80
2018-03-22T10:35:15.859Z,1002.67
2018-03-22T10:36:15.824Z,1002.69
2018-03-22T10:37:15.816Z,1002.69
2018-03-22T10:38:15.774Z,1002.71
2018-03-22T10:39:16.109Z,1002.71
2018-03-22T10:40:15.863Z,1002.74
2018-03-22T10:41:15.722Z,1002.73
2018-03-22T10:42:15.899Z,1002.67
2018-03-22T10:43:15.673Z,1002.71
2018-03-22T10:44:15.665Z,1002.67
2018-03-22T10:45:15.825Z,1002.64
2018-03-22T10:50:16.258Z,1002.59
2018-03-22T10:51:15.535Z,1002.64
2018-03-22T10:52:15.536Z,1002.67
2018-03-22T10:53:15.444Z,1002.61
2018-03-22T10:54:15.541Z,1002.65
2018-03-22T10:55:15.435Z,1002.66
2018-03-22T10:57:15.710Z,1002.62
2018-03-22T10:59:15.322Z,1002.69
2018-03-22T11:00:15.284Z,1002.60
2018-03-22T11:02:15.253Z,1002.61
2018-03-22T11:03:15.579Z,1002.69
2018-03-22T11:04:15.203Z,1002.60
2018-03-22T11:05:15.185Z,1002.59
2018-03-22T11:06:15.170Z,1002.55
2018-03-22T11:07:15.143Z,1002.59
2018-03-22T11:09:15.147Z,1002.58
2018-03-22T11:10:15.071Z,1002.60
2018-03-22T11:11:15.055Z,1002.64
2018-03-22T11:12:15.032Z,1002.55
2018-03-22T11:13:15.019Z,1002.52
2018-03-22T11:14:14.999Z,1002.52
2018-03-22T11:15:15.017Z,1002.53
2018-03-22T11:16:14.957Z,1002.49
2018-03-22T11:17:15.197Z,1002.54
2018-03-22T11:18:15.187Z,1002.53
2018-03-22T11:19:15.365Z,1002.54
2018-03-22T11:20:15.342Z,1002.56
2018-03-22T11:21:16.136Z,1002.52
2018-03-22T11:22:15.050Z,1002.53
2018-03-22T11:23:15.211Z,1002.54
2018-03-22T11:25:14.793Z,1002.53
2018-03-22T11:26:14.760Z,1002.49
2018-03-22T11:27:15.057Z,1002.54
2018-03-22T11:28:14.747Z,1002.58
2018-03-22T11:31:14.622Z,1002.59
2018-03-22T11:32:14.602Z,1002.58
2018-03-22T11:33:14.628Z,1002.52
2018-03-22T11:34:14.569Z,1002.55
2018-03-22T11:35:14.556Z,1002.56
2018-03-22T11:36:14.520Z,1002.52
2018-03-22T11:37:14.502Z,1002.57
2018-03-22T11:38:14.782Z,1002.58
2018-03-22T11:39:14.524Z,1002.61
2018-03-22T11:40:14.441Z,1002.49
2018-03-22T11:41:14.426Z,1002.51
2018-03-22T11:42:14.392Z,1002.57
2018-03-22T11:44:14.654Z,1002.54
2018-03-22T11:45:14.562Z,1002.48
2018-03-22T11:46:14.309Z,1002.51
2018-03-22T11:47:14.509Z,1002.46
2018-03-22T11:48:14.815Z,1002.50
2018-03-22T11:49:14.245Z,1002.46
2018-03-22T11:51:14.251Z,1002.55
2018-03-22T11:52:14.191Z,1002.48
2018-03-22T11:53:14.246Z,1002.46
2018-03-22T11:56:14.401Z,1002.45
2018-03-22T11:57:14.140Z,1002.48
2018-03-22T11:58:14.059Z,1002.49
2018-03-22T11:59:14.034Z,1002.43
2018-03-22T12:00:14.929Z,1002.55
2018-03-22T12:01:13.992Z,1002.47
2018-03-22T12:02:13.983Z,1002.47
2018-03-22T12:05:13.971Z,1002.38
2018-03-22T12:06:13.904Z,1002.41
2018-03-22T12:07:13.873Z,1002.39
2018-03-22T12:08:13.855Z,1002.38
2018-03-22T12:09:13.901Z,1002.37
2018-03-22T12:10:13.821Z,1002.29
2018-03-22T12:11:13.995Z,1002.39
2018-03-22T12:12:13.879Z,1002.37
2018-03-22T12:15:14.022Z,1002.28
2018-03-22T12:16:13.684Z,1002.24
2018-03-22T12:17:13.755Z,1002.21
2018-03-22T12:18:13.653Z,1002.19
2018-03-22T12:19:13.984Z,1002.19
2018-03-22T12:20:13.619Z,1002.26
2018-03-22T12:21:13.598Z,1002.20
2018-03-22T12:22:13.579Z,1002.25
2018-03-22T12:23:13.609Z,1002.06
2018-03-22T12:24:13.647Z,1002.15
2018-03-22T12:25:13.524Z,1002.15
2018-03-22T12:26:13.496Z,1002.08
2018-03-22T12:27:13.475Z,1002.03
2018-03-22T12:28:13.458Z,1002.11
2018-03-22T12:29:13.499Z,1002.18
2018-03-22T12:30:13.420Z,1002.06
2018-03-22T12:31:13.452Z,1002.13
2018-03-22T12:32:13.378Z,1002.08
2018-03-22T12:33:13.674Z,1002.08
2018-03-22T12:34:13.350Z,1002.18
2018-03-22T12:35:13.368Z,1002.09
2018-03-22T12:36:13.300Z,1002.12
2018-03-22T12:37:13.281Z,1002.02
2018-03-22T12:38:13.264Z,1002.06
2018-03-22T12:39:13.563Z,1002.19
2018-03-22T12:40:13.272Z,1002.20
2018-03-22T12:41:13.328Z,1002.11
2018-03-22T12:42:13.184Z,1002.14
2018-03-22T12:43:13.197Z,1002.08
2018-03-22T12:44:13.160Z,1002.05
2018-03-22T12:45:13.112Z,1002.12
2018-03-22T12:46:13.093Z,1002.06
2018-03-22T12:47:13.125Z,1002.03
2018-03-22T12:48:13.175Z,1002.11
2018-03-22T12:49:13.051Z,1002.03
2018-03-22T12:50:13.079Z,1002.02
2018-03-22T12:51:13.304Z,1001.98
2018-03-22T12:52:12.979Z,1002.05
2018-03-22T12:53:13.016Z,1002.00
2018-03-22T12:54:12.942Z,1002.01
2018-03-22T12:55:12.938Z,1002.08
2018-03-22T12:56:13.101Z,1002.05
2018-03-22T12:57:12.946Z,1002.05
2018-03-22T12:58:12.921Z,1001.99
2018-03-22T12:59:12.906Z,1001.96
2018-03-22T13:00:12.840Z,1002.02
2018-03-22T13:01:12.828Z,1001.91
2018-03-22T13:02:13.119Z,1001.93
2018-03-22T13:03:12.783Z,1002.01
2018-03-22T13:04:12.758Z,1001.91
2018-03-22T13:05:12.889Z,1001.97